PWSweather.com
Personal Weather Stations
Station Observations
GEELONGWX1
Bell Post Hill, GeelongAU

Bell Post HillGeelongAU

Lat: -38.101, Lon: 144.326

Elevation: 204

Station Type: Davis Vantage Pro2

http://www.geelongweather.com

High Low Average
Temperature 95.6°F35.3°C 67.5°F19.7°C 77.5°F25.3°C
Dew Point 70.2°F21.2°C 59.3°F15.2°C 63.8°F17.7°C
Winds 15.0 mph 24.1 kmh Calm Calm 3.0 mph SE4.8 kmh SE
Wind Gusts 28.8 mph46.3 kmh -- 4.0 mph6.4 kmh
Humidity 89% 31% 66%
Pressure 29.88 in1011.9 mb 29.76 in1007.8 mb -
Precipitation 0.00 in0.0 mm - -
Hour Temp Dew Point Humidity Winds Wind Gusts Pressure Precip Precip Rate Daily Precip Total
12:00 AM 68.5°F20.3°C 62.8°F17.1°C 82% 1.2 mph E1.9 kmh E 3.5 mph5.6 kmh 29.81 in1009.5 mb - 0.00 in0.0 mm 0.00 in0.0 mm
12:10 AM 68.5°F20.3°C 62.8°F17.1°C 82% 1.2 mph ENE1.9 kmh ENE 1.2 mph1.9 kmh 29.81 in1009.5 mb - 0.00 in0.0 mm 0.00 in0.0 mm
12:20 AM 68.4°F20.2°C 62.7°F17.1°C 82% Calm Calm -- 29.81 in1009.5 mb - 0.00 in0.0 mm 0.00 in0.0 mm
12:30 AM 68.3°F20.2°C 62.6°F17.0°C 82% Calm Calm -- 29.81 in1009.5 mb - 0.00 in0.0 mm 0.00 in0.0 mm
12:40 AM 68.2°F20.1°C 62.5°F16.9°C 82% Calm Calm -- 29.80 in1009.1 mb - 0.00 in0.0 mm 0.00 in0.0 mm
12:50 AM 68.1°F20.1°C 62.4°F16.9°C 82% Calm Calm -- 29.80 in1009.1 mb - 0.00 in0.0 mm 0.00 in0.0 mm
01:00 AM 68.0°F20.0°C 62.3°F16.8°C 82% Calm Calm -- 29.80 in1009.1 mb - 0.00 in0.0 mm 0.00 in0.0 mm
01:10 AM 67.9°F19.9°C 62.2°F16.8°C 82% Calm Calm -- 29.80 in1009.1 mb - 0.00 in0.0 mm 0.00 in0.0 mm
01:20 AM 67.8°F19.9°C 62.5°F16.9°C 83% Calm Calm -- 29.81 in1009.5 mb - 0.00 in0.0 mm 0.00 in0.0 mm
01:30 AM 67.8°F19.9°C 62.4°F16.9°C 83% Calm Calm -- 29.82 in1009.8 mb - 0.00 in0.0 mm 0.00 in0.0 mm
01:40 AM 67.8°F19.9°C 62.4°F16.9°C 83% Calm Calm -- 29.82 in1009.8 mb - 0.00 in0.0 mm 0.00 in0.0 mm
01:50 AM 67.8°F19.9°C 62.8°F17.1°C 84% 1.2 mph E1.9 kmh E 2.3 mph3.7 kmh 29.82 in1009.8 mb - 0.00 in0.0 mm 0.00 in0.0 mm
02:00 AM 67.8°F19.9°C 62.8°F17.1°C 84% 2.3 mph E3.7 kmh E 3.5 mph5.6 kmh 29.82 in1009.8 mb - 0.00 in0.0 mm 0.00 in0.0 mm
02:10 AM 67.8°F19.9°C 62.8°F17.1°C 84% 1.2 mph ESE1.9 kmh ESE 3.5 mph5.6 kmh 29.81 in1009.5 mb - 0.00 in0.0 mm 0.00 in0.0 mm
02:20 AM 67.8°F19.9°C 62.8°F17.1°C 84% 1.2 mph E1.9 kmh E 2.3 mph3.7 kmh 29.82 in1009.8 mb - 0.00 in0.0 mm 0.00 in0.0 mm
02:30 AM 67.8°F19.9°C 62.8°F17.1°C 84% 1.2 mph SE1.9 kmh SE 3.5 mph5.6 kmh 29.81 in1009.5 mb - 0.00 in0.0 mm 0.00 in0.0 mm
02:40 AM 67.8°F19.9°C 63.1°F17.3°C 85% 1.2 mph SE1.9 kmh SE 2.3 mph3.7 kmh 29.82 in1009.8 mb - 0.00 in0.0 mm 0.00 in0.0 mm
02:50 AM 67.8°F19.9°C 63.1°F17.3°C 85% 3.5 mph E5.6 kmh E 4.6 mph7.4 kmh 29.81 in1009.5 mb - 0.00 in0.0 mm 0.00 in0.0 mm
03:00 AM 67.8°F19.9°C 63.1°F17.3°C 85% 1.2 mph ESE1.9 kmh ESE 2.3 mph3.7 kmh 29.82 in1009.8 mb - 0.00 in0.0 mm 0.00 in0.0 mm
03:10 AM 67.8°F19.9°C 63.1°F17.3°C 85% 1.2 mph ESE1.9 kmh ESE 3.5 mph5.6 kmh 29.82 in1009.8 mb - 0.00 in0.0 mm 0.00 in0.0 mm
03:20 AM 67.8°F19.9°C 63.1°F17.3°C 85% Calm Calm 1.2 mph1.9 kmh 29.82 in1009.8 mb - 0.00 in0.0 mm 0.00 in0.0 mm
03:30 AM 67.7°F19.8°C 63.0°F17.2°C 85% Calm Calm -- 29.83 in1010.2 mb - 0.00 in0.0 mm 0.00 in0.0 mm
03:40 AM 67.7°F19.8°C 63.0°F17.2°C 85% Calm Calm 2.3 mph3.7 kmh 29.83 in1010.2 mb - 0.00 in0.0 mm 0.00 in0.0 mm
03:50 AM 67.6°F19.8°C 63.3°F17.4°C 86% Calm Calm -- 29.82 in1009.8 mb - 0.00 in0.0 mm 0.00 in0.0 mm
04:00 AM 67.6°F19.8°C 63.3°F17.4°C 86% Calm Calm -- 29.82 in1009.8 mb - 0.00 in0.0 mm 0.00 in0.0 mm
04:10 AM 67.5°F19.7°C 63.2°F17.3°C 86% Calm Calm -- 29.81 in1009.5 mb - 0.00 in0.0 mm 0.00 in0.0 mm
04:20 AM 67.6°F19.8°C 63.6°F17.6°C 87% 1.2 mph NE1.9 kmh NE 3.5 mph5.6 kmh 29.79 in1008.8 mb - 0.00 in0.0 mm 0.00 in0.0 mm
04:30 AM 67.7°F19.8°C 63.7°F17.6°C 87% 2.3 mph NE3.7 kmh NE 3.5 mph5.6 kmh 29.78 in1008.5 mb - 0.00 in0.0 mm 0.00 in0.0 mm
04:40 AM 67.8°F19.9°C 64.1°F17.8°C 88% 3.5 mph NE5.6 kmh NE 5.8 mph9.3 kmh 29.77 in1008.1 mb - 0.00 in0.0 mm 0.00 in0.0 mm
04:50 AM 67.9°F19.9°C 64.2°F17.9°C 88% 2.3 mph NE3.7 kmh NE 3.5 mph5.6 kmh 29.77 in1008.1 mb - 0.00 in0.0 mm 0.00 in0.0 mm
05:00 AM 67.9°F19.9°C 64.2°F17.9°C 88% 3.5 mph ENE5.6 kmh ENE 3.5 mph5.6 kmh 29.78 in1008.5 mb - 0.00 in0.0 mm 0.00 in0.0 mm
05:10 AM 67.9°F19.9°C 64.2°F17.9°C 88% 1.2 mph ENE1.9 kmh ENE 2.3 mph3.7 kmh 29.79 in1008.8 mb - 0.00 in0.0 mm 0.00 in0.0 mm
05:20 AM 67.9°F19.9°C 64.2°F17.9°C 88% 1.2 mph ENE1.9 kmh ENE 2.3 mph3.7 kmh 29.79 in1008.8 mb - 0.00 in0.0 mm 0.00 in0.0 mm
05:30 AM 67.8°F19.9°C 64.1°F17.8°C 88% 1.2 mph E1.9 kmh E 2.3 mph3.7 kmh 29.79 in1008.8 mb - 0.00 in0.0 mm 0.00 in0.0 mm
05:40 AM 67.7°F19.8°C 64.0°F17.8°C 88% Calm Calm -- 29.80 in1009.1 mb - 0.00 in0.0 mm 0.00 in0.0 mm
05:50 AM 67.8°F19.9°C 64.1°F17.8°C 88% Calm Calm -- 29.80 in1009.1 mb - 0.00 in0.0 mm 0.00 in0.0 mm
06:00 AM 67.7°F19.8°C 64.4°F18.0°C 89% Calm Calm -- 29.81 in1009.5 mb - 0.00 in0.0 mm 0.00 in0.0 mm
06:10 AM 67.9°F19.9°C 64.5°F18.1°C 89% Calm Calm -- 29.82 in1009.8 mb - 0.00 in0.0 mm 0.00 in0.0 mm
06:20 AM 68.0°F20.0°C 64.6°F18.1°C 89% 3.5 mph S5.6 kmh S 4.6 mph7.4 kmh 29.84 in1010.5 mb - 0.00 in0.0 mm 0.00 in0.0 mm
06:30 AM 68.2°F20.1°C 64.8°F18.2°C 89% 1.2 mph SE1.9 kmh SE 2.3 mph3.7 kmh 29.84 in1010.5 mb - 0.00 in0.0 mm 0.00 in0.0 mm
06:40 AM 68.2°F20.1°C 64.9°F18.3°C 89% 2.3 mph ESE3.7 kmh ESE 4.6 mph7.4 kmh 29.84 in1010.5 mb - 0.00 in0.0 mm 0.00 in0.0 mm
06:50 AM 68.3°F20.2°C 64.9°F18.3°C 89% 1.2 mph SSE1.9 kmh SSE 1.2 mph1.9 kmh 29.85 in1010.8 mb - 0.00 in0.0 mm 0.00 in0.0 mm
07:00 AM 68.4°F20.2°C 65.0°F18.3°C 89% 1.2 mph SE1.9 kmh SE 4.6 mph7.4 kmh 29.86 in1011.2 mb - 0.00 in0.0 mm 0.00 in0.0 mm
07:10 AM 68.5°F20.3°C 65.1°F18.4°C 89% 2.3 mph SE3.7 kmh SE 2.3 mph3.7 kmh 29.86 in1011.2 mb - 0.00 in0.0 mm 0.00 in0.0 mm
07:20 AM 68.7°F20.4°C 65.3°F18.5°C 89% 3.5 mph SE5.6 kmh SE 4.6 mph7.4 kmh 29.88 in1011.9 mb - 0.00 in0.0 mm 0.00 in0.0 mm
07:30 AM 68.9°F20.5°C 65.5°F18.6°C 89% 2.3 mph SE3.7 kmh SE 3.5 mph5.6 kmh 29.88 in1011.9 mb - 0.00 in0.0 mm 0.00 in0.0 mm
07:40 AM 69.2°F20.7°C 65.8°F18.8°C 89% Calm Calm -- 29.87 in1011.5 mb - 0.00 in0.0 mm 0.00 in0.0 mm
07:50 AM 69.4°F20.8°C 66.0°F18.9°C 89% Calm Calm -- 29.87 in1011.5 mb - 0.00 in0.0 mm 0.00 in0.0 mm
08:00 AM 69.6°F20.9°C 65.9°F18.8°C 88% Calm Calm -- 29.88 in1011.9 mb - 0.00 in0.0 mm 0.00 in0.0 mm
08:10 AM 69.8°F21.0°C 66.1°F18.9°C 88% Calm Calm -- 29.88 in1011.9 mb - 0.00 in0.0 mm 0.00 in0.0 mm
08:20 AM 70.1°F21.2°C 66.3°F19.1°C 88% Calm Calm -- 29.88 in1011.9 mb - 0.00 in0.0 mm 0.00 in0.0 mm
08:30 AM 70.4°F21.3°C 66.6°F19.2°C 88% Calm Calm -- 29.88 in1011.9 mb - 0.00 in0.0 mm 0.00 in0.0 mm
08:40 AM 70.8°F21.6°C 66.7°F19.3°C 87% 1.2 mph N1.9 kmh N 2.3 mph3.7 kmh 29.87 in1011.5 mb - 0.00 in0.0 mm 0.00 in0.0 mm
08:50 AM 71.2°F21.8°C 66.7°F19.3°C 86% Calm Calm -- 29.87 in1011.5 mb - 0.00 in0.0 mm 0.00 in0.0 mm
09:00 AM 71.9°F22.2°C 67.5°F19.7°C 86% Calm Calm -- 29.86 in1011.2 mb - 0.00 in0.0 mm 0.00 in0.0 mm
09:10 AM 72.3°F22.4°C 67.2°F19.6°C 84% Calm Calm -- 29.85 in1010.8 mb - 0.00 in0.0 mm 0.00 in0.0 mm
09:20 AM 72.8°F22.7°C 67.4°F19.7°C 83% 2.3 mph N3.7 kmh N 3.5 mph5.6 kmh 29.85 in1010.8 mb - 0.00 in0.0 mm 0.00 in0.0 mm
09:30 AM 73.3°F22.9°C 67.1°F19.5°C 81% Calm Calm 1.2 mph1.9 kmh 29.85 in1010.8 mb - 0.00 in0.0 mm 0.00 in0.0 mm
09:40 AM 73.9°F23.3°C 67.3°F19.6°C 80% 1.2 mph NE1.9 kmh NE 3.5 mph5.6 kmh 29.85 in1010.8 mb - 0.00 in0.0 mm 0.00 in0.0 mm
09:50 AM 74.7°F23.7°C 67.7°F19.8°C 79% Calm Calm -- 29.84 in1010.5 mb - 0.00 in0.0 mm 0.00 in0.0 mm
10:00 AM 75.5°F24.2°C 68.2°F20.1°C 78% Calm Calm -- 29.84 in1010.5 mb - 0.00 in0.0 mm 0.00 in0.0 mm
10:10 AM 76.1°F24.5°C 68.0°F20.0°C 76% Calm Calm -- 29.85 in1010.8 mb - 0.00 in0.0 mm 0.00 in0.0 mm
10:20 AM 76.4°F24.7°C 67.9°F19.9°C 75% Calm Calm -- 29.85 in1010.8 mb - 0.00 in0.0 mm 0.00 in0.0 mm
10:30 AM 76.7°F24.8°C 67.7°F19.8°C 74% Calm Calm -- 29.84 in1010.5 mb - 0.00 in0.0 mm 0.00 in0.0 mm
10:40 AM 76.9°F24.9°C 68.4°F20.2°C 75% Calm Calm -- 29.84 in1010.5 mb - 0.00 in0.0 mm 0.00 in0.0 mm
10:50 AM 77.1°F25.1°C 68.6°F20.3°C 75% Calm Calm -- 29.83 in1010.2 mb - 0.00 in0.0 mm 0.00 in0.0 mm
11:00 AM 77.0°F25.0°C 68.5°F20.3°C 75% 5.8 mph N9.3 kmh N 8.1 mph13.0 kmh 29.81 in1009.5 mb - 0.00 in0.0 mm 0.00 in0.0 mm
11:10 AM 76.7°F24.8°C 68.2°F20.1°C 75% 3.5 mph NE5.6 kmh NE 3.5 mph5.6 kmh 29.81 in1009.5 mb - 0.00 in0.0 mm 0.00 in0.0 mm
11:20 AM 77.1°F25.1°C 68.9°F20.5°C 76% 4.6 mph NE7.4 kmh NE 4.6 mph7.4 kmh 29.82 in1009.8 mb - 0.00 in0.0 mm 0.00 in0.0 mm
11:30 AM 77.5°F25.3°C 68.9°F20.5°C 75% 3.5 mph NE5.6 kmh NE 3.5 mph5.6 kmh 29.83 in1010.2 mb - 0.00 in0.0 mm 0.00 in0.0 mm
11:40 AM 77.7°F25.4°C 68.4°F20.2°C 73% 2.3 mph NE3.7 kmh NE 3.5 mph5.6 kmh 29.83 in1010.2 mb - 0.00 in0.0 mm 0.00 in0.0 mm
11:50 AM 77.7°F25.4°C 67.9°F19.9°C 72% 2.3 mph NE3.7 kmh NE 3.5 mph5.6 kmh 29.83 in1010.2 mb - 0.00 in0.0 mm 0.00 in0.0 mm
12:00 PM 77.8°F25.4°C 68.5°F20.3°C 73% 3.5 mph NNE5.6 kmh NNE 4.6 mph7.4 kmh 29.82 in1009.8 mb - 0.00 in0.0 mm 0.00 in0.0 mm
12:10 PM 77.8°F25.4°C 67.6°F19.8°C 71% 2.3 mph NNE3.7 kmh NNE 3.5 mph5.6 kmh 29.82 in1009.8 mb - 0.00 in0.0 mm 0.00 in0.0 mm
12:20 PM 77.9°F25.5°C 67.8°F19.9°C 71% 2.3 mph NNE3.7 kmh NNE 3.5 mph5.6 kmh 29.82 in1009.8 mb - 0.00 in0.0 mm 0.00 in0.0 mm
12:30 PM 78.7°F25.9°C 68.9°F20.5°C 72% 1.2 mph N1.9 kmh N 2.3 mph3.7 kmh 29.83 in1010.2 mb - 0.00 in0.0 mm 0.00 in0.0 mm
12:40 PM 79.4°F26.3°C 69.2°F20.7°C 71% 1.2 mph NNW1.9 kmh NNW 2.3 mph3.7 kmh 29.83 in1010.2 mb - 0.00 in0.0 mm 0.00 in0.0 mm
12:50 PM 80.2°F26.8°C 69.9°F21.1°C 71% 1.2 mph E1.9 kmh E 3.5 mph5.6 kmh 29.84 in1010.5 mb - 0.00 in0.0 mm 0.00 in0.0 mm
01:00 PM 81.4°F27.4°C 70.2°F21.2°C 69% Calm Calm -- 29.83 in1010.2 mb - 0.00 in0.0 mm 0.00 in0.0 mm
01:10 PM 82.5°F28.1°C 64.1°F17.8°C 54% 12.7 mph S20.4 kmh S 28.8 mph46.3 kmh 29.85 in1010.8 mb - 0.00 in0.0 mm 0.00 in0.0 mm
01:20 PM 85.7°F29.8°C 61.2°F16.2°C 44% 15.0 mph SSW24.1 kmh SSW 15.0 mph24.1 kmh 29.86 in1011.2 mb - 0.00 in0.0 mm 0.00 in0.0 mm
01:30 PM 86.1°F30.1°C 63.5°F17.5°C 47% 11.5 mph SW18.5 kmh SW 13.8 mph22.2 kmh 29.85 in1010.8 mb - 0.00 in0.0 mm 0.00 in0.0 mm
01:40 PM 85.6°F29.8°C 63.1°F17.3°C 47% 12.7 mph SW20.4 kmh SW 17.3 mph27.8 kmh 29.84 in1010.5 mb - 0.00 in0.0 mm 0.00 in0.0 mm
01:50 PM 85.7°F29.8°C 64.3°F17.9°C 49% 5.8 mph SW9.3 kmh SW 11.5 mph18.5 kmh 29.80 in1009.1 mb - 0.00 in0.0 mm 0.00 in0.0 mm
02:00 PM 86.7°F30.4°C 65.3°F18.5°C 49% 3.5 mph SW5.6 kmh SW 5.8 mph9.3 kmh 29.80 in1009.1 mb - 0.00 in0.0 mm 0.00 in0.0 mm
02:10 PM 88.8°F31.6°C 64.1°F17.8°C 44% 8.1 mph SW13.0 kmh SW 10.4 mph16.7 kmh 29.80 in1009.1 mb - 0.00 in0.0 mm 0.00 in0.0 mm
02:20 PM 91.0°F32.8°C 64.1°F17.8°C 41% 9.2 mph SW14.8 kmh SW 13.8 mph22.2 kmh 29.80 in1009.1 mb - 0.00 in0.0 mm 0.00 in0.0 mm
02:30 PM 92.9°F33.8°C 62.8°F17.1°C 37% 9.2 mph WSW14.8 kmh WSW 13.8 mph22.2 kmh 29.80 in1009.1 mb - 0.00 in0.0 mm 0.00 in0.0 mm
02:40 PM 94.4°F34.7°C 62.5°F16.9°C 35% 9.2 mph SW14.8 kmh SW 11.5 mph18.5 kmh 29.79 in1008.8 mb - 0.00 in0.0 mm 0.00 in0.0 mm
02:50 PM 95.5°F35.3°C 61.9°F16.6°C 33% 6.9 mph SW11.1 kmh SW 9.2 mph14.8 kmh 29.78 in1008.5 mb - 0.00 in0.0 mm 0.00 in0.0 mm
03:00 PM 95.6°F35.3°C 61.0°F16.1°C 32% 10.4 mph SW16.7 kmh SW 12.7 mph20.4 kmh 29.78 in1008.5 mb - 0.00 in0.0 mm 0.00 in0.0 mm
03:10 PM 95.3°F35.2°C 59.9°F15.5°C 31% 5.8 mph WSW9.3 kmh WSW 8.1 mph13.0 kmh 29.78 in1008.5 mb - 0.00 in0.0 mm 0.00 in0.0 mm
03:20 PM 95.4°F35.2°C 60.0°F15.6°C 31% 9.2 mph SW14.8 kmh SW 11.5 mph18.5 kmh 29.77 in1008.1 mb - 0.00 in0.0 mm 0.00 in0.0 mm
03:30 PM 95.1°F35.1°C 60.6°F15.9°C 32% 6.9 mph SW11.1 kmh SW 11.5 mph18.5 kmh 29.77 in1008.1 mb - 0.00 in0.0 mm 0.00 in0.0 mm
03:40 PM 94.9°F34.9°C 62.1°F16.7°C 34% 6.9 mph SSW11.1 kmh SSW 10.4 mph16.7 kmh 29.77 in1008.1 mb - 0.00 in0.0 mm 0.00 in0.0 mm
03:50 PM 94.8°F34.9°C 61.2°F16.2°C 33% 6.9 mph SW11.1 kmh SW 12.7 mph20.4 kmh 29.77 in1008.1 mb - 0.00 in0.0 mm 0.00 in0.0 mm
04:00 PM 94.2°F34.6°C 62.4°F16.9°C 35% 5.8 mph SW9.3 kmh SW 9.2 mph14.8 kmh 29.77 in1008.1 mb - 0.00 in0.0 mm 0.00 in0.0 mm
04:10 PM 93.0°F33.9°C 60.5°F15.8°C 34% 10.4 mph SW16.7 kmh SW 13.8 mph22.2 kmh 29.77 in1008.1 mb - 0.00 in0.0 mm 0.00 in0.0 mm
04:20 PM 92.4°F33.6°C 60.8°F16.0°C 35% 5.8 mph SW9.3 kmh SW 11.5 mph18.5 kmh 29.77 in1008.1 mb - 0.00 in0.0 mm 0.00 in0.0 mm
04:30 PM 92.1°F33.4°C 61.3°F16.3°C 36% 6.9 mph SW11.1 kmh SW 9.2 mph14.8 kmh 29.77 in1008.1 mb - 0.00 in0.0 mm 0.00 in0.0 mm
04:40 PM 91.9°F33.3°C 60.3°F15.7°C 35% 6.9 mph WSW11.1 kmh WSW 8.1 mph13.0 kmh 29.76 in1007.8 mb - 0.00 in0.0 mm 0.00 in0.0 mm
04:50 PM 91.9°F33.3°C 60.3°F15.7°C 35% 1.2 mph SW1.9 kmh SW 3.5 mph5.6 kmh 29.77 in1008.1 mb - 0.00 in0.0 mm 0.00 in0.0 mm
05:00 PM 91.9°F33.3°C 60.3°F15.7°C 35% 10.4 mph SW16.7 kmh SW 15.0 mph24.1 kmh 29.77 in1008.1 mb - 0.00 in0.0 mm 0.00 in0.0 mm
05:10 PM 91.8°F33.2°C 59.4°F15.2°C 34% 9.2 mph SW14.8 kmh SW 11.5 mph18.5 kmh 29.77 in1008.1 mb - 0.00 in0.0 mm 0.00 in0.0 mm
05:20 PM 91.6°F33.1°C 60.1°F15.6°C 35% 2.3 mph SSW3.7 kmh SSW 3.5 mph5.6 kmh 29.76 in1007.8 mb - 0.00 in0.0 mm 0.00 in0.0 mm
05:30 PM 91.5°F33.1°C 60.0°F15.6°C 35% 8.1 mph SSW13.0 kmh SSW 12.7 mph20.4 kmh 29.77 in1008.1 mb - 0.00 in0.0 mm 0.00 in0.0 mm
05:40 PM 91.6°F33.1°C 59.3°F15.2°C 34% 5.8 mph WSW9.3 kmh WSW 9.2 mph14.8 kmh 29.77 in1008.1 mb - 0.00 in0.0 mm 0.00 in0.0 mm
05:50 PM 91.6°F33.1°C 60.1°F15.6°C 35% 8.1 mph SW13.0 kmh SW 12.7 mph20.4 kmh 29.78 in1008.5 mb - 0.00 in0.0 mm 0.00 in0.0 mm
06:00 PM 91.4°F33.0°C 60.7°F15.9°C 36% 5.8 mph S9.3 kmh S 5.8 mph9.3 kmh 29.79 in1008.8 mb - 0.00 in0.0 mm 0.00 in0.0 mm
06:10 PM 91.1°F32.8°C 60.4°F15.8°C 36% 8.1 mph S13.0 kmh S 11.5 mph18.5 kmh 29.80 in1009.1 mb - 0.00 in0.0 mm 0.00 in0.0 mm
06:20 PM 90.7°F32.6°C 61.6°F16.4°C 38% 10.4 mph SSE16.7 kmh SSE 13.8 mph22.2 kmh 29.80 in1009.1 mb - 0.00 in0.0 mm 0.00 in0.0 mm
06:30 PM 90.3°F32.4°C 63.4°F17.4°C 41% 4.6 mph E7.4 kmh E 6.9 mph11.1 kmh 29.81 in1009.5 mb - 0.00 in0.0 mm 0.00 in0.0 mm
06:40 PM 89.3°F31.8°C 63.9°F17.7°C 43% 5.8 mph ENE9.3 kmh ENE 6.9 mph11.1 kmh 29.81 in1009.5 mb - 0.00 in0.0 mm 0.00 in0.0 mm
06:50 PM 87.7°F30.9°C 63.7°F17.6°C 45% 5.8 mph ENE9.3 kmh ENE 8.1 mph13.0 kmh 29.82 in1009.8 mb - 0.00 in0.0 mm 0.00 in0.0 mm
07:00 PM 85.9°F29.9°C 63.3°F17.4°C 47% 4.6 mph ENE7.4 kmh ENE 8.1 mph13.0 kmh 29.82 in1009.8 mb - 0.00 in0.0 mm 0.00 in0.0 mm
07:10 PM 84.4°F29.1°C 62.6°F17.0°C 48% 3.5 mph E5.6 kmh E 3.5 mph5.6 kmh 29.83 in1010.2 mb - 0.00 in0.0 mm 0.00 in0.0 mm
07:20 PM 83.4°F28.6°C 62.2°F16.8°C 49% 3.5 mph E5.6 kmh E 3.5 mph5.6 kmh 29.84 in1010.5 mb - 0.00 in0.0 mm 0.00 in0.0 mm
07:30 PM 82.4°F28.0°C 61.9°F16.6°C 50% 2.3 mph ESE3.7 kmh ESE 3.5 mph5.6 kmh 29.84 in1010.5 mb - 0.00 in0.0 mm 0.00 in0.0 mm
07:40 PM 81.6°F27.6°C 62.3°F16.8°C 52% Calm Calm -- 29.85 in1010.8 mb - 0.00 in0.0 mm 0.00 in0.0 mm
07:50 PM 80.9°F27.2°C 62.2°F16.8°C 53% Calm Calm -- 29.85 in1010.8 mb - 0.00 in0.0 mm 0.00 in0.0 mm
08:00 PM 80.4°F26.9°C 62.2°F16.8°C 54% Calm Calm -- 29.86 in1011.2 mb - 0.00 in0.0 mm 0.00 in0.0 mm
08:10 PM 79.8°F26.6°C 62.7°F17.1°C 56% Calm Calm -- 29.86 in1011.2 mb - 0.00 in0.0 mm 0.00 in0.0 mm
08:20 PM 79.3°F26.3°C 62.7°F17.1°C 57% Calm Calm -- 29.85 in1010.8 mb - 0.00 in0.0 mm 0.00 in0.0 mm
08:30 PM 78.9°F26.1°C 62.4°F16.9°C 57% Calm Calm -- 29.85 in1010.8 mb - 0.00 in0.0 mm 0.00 in0.0 mm
08:40 PM 78.5°F25.8°C 62.0°F16.7°C 57% Calm Calm -- 29.85 in1010.8 mb - 0.00 in0.0 mm 0.00 in0.0 mm
08:50 PM 78.1°F25.6°C 62.1°F16.7°C 58% Calm Calm -- 29.86 in1011.2 mb - 0.00 in0.0 mm 0.00 in0.0 mm
09:00 PM 77.8°F25.4°C 62.3°F16.8°C 59% Calm Calm -- 29.86 in1011.2 mb - 0.00 in0.0 mm 0.00 in0.0 mm
09:10 PM 77.6°F25.3°C 62.1°F16.7°C 59% Calm Calm -- 29.87 in1011.5 mb - 0.00 in0.0 mm 0.00 in0.0 mm
09:20 PM 77.4°F25.2°C 62.5°F16.9°C 60% Calm Calm -- 29.87 in1011.5 mb - 0.00 in0.0 mm 0.00 in0.0 mm
09:30 PM 77.5°F25.3°C 62.0°F16.7°C 59% Calm Calm -- 29.87 in1011.5 mb - 0.00 in0.0 mm 0.00 in0.0 mm
09:40 PM 77.5°F25.3°C 62.0°F16.7°C 59% Calm Calm -- 29.86 in1011.2 mb - 0.00 in0.0 mm 0.00 in0.0 mm
09:50 PM 77.4°F25.2°C 61.5°F16.4°C 58% Calm Calm -- 29.86 in1011.2 mb - 0.00 in0.0 mm 0.00 in0.0 mm
10:00 PM 77.4°F25.2°C 61.5°F16.4°C 58% 2.3 mph SSW3.7 kmh SSW 3.5 mph5.6 kmh 29.88 in1011.9 mb - 0.00 in0.0 mm 0.00 in0.0 mm
10:10 PM 77.4°F25.2°C 61.0°F16.1°C 57% 1.2 mph SSW1.9 kmh SSW -- 29.88 in1011.9 mb - 0.00 in0.0 mm 0.00 in0.0 mm
10:20 PM 77.4°F25.2°C 61.0°F16.1°C 57% Calm Calm -- 29.86 in1011.2 mb - 0.00 in0.0 mm 0.00 in0.0 mm
10:30 PM 77.3°F25.2°C 60.9°F16.1°C 57% Calm Calm -- 29.87 in1011.5 mb - 0.00 in0.0 mm 0.00 in0.0 mm
10:40 PM 77.2°F25.1°C 61.3°F16.3°C 58% Calm Calm -- 29.88 in1011.9 mb - 0.00 in0.0 mm 0.00 in0.0 mm
10:50 PM 77.1°F25.1°C 61.7°F16.5°C 59% Calm Calm -- 29.88 in1011.9 mb - 0.00 in0.0 mm 0.00 in0.0 mm
11:00 PM 77.0°F25.0°C 61.6°F16.4°C 59% Calm Calm -- 29.84 in1010.5 mb - 0.00 in0.0 mm 0.00 in0.0 mm
11:10 PM 76.9°F24.9°C 62.0°F16.7°C 60% Calm Calm -- 29.85 in1010.8 mb - 0.00 in0.0 mm 0.00 in0.0 mm
11:20 PM 76.7°F24.8°C 61.8°F16.6°C 60% Calm Calm -- 29.85 in1010.8 mb - 0.00 in0.0 mm 0.00 in0.0 mm
11:30 PM 76.5°F24.7°C 62.1°F16.7°C 61% Calm Calm -- 29.87 in1011.5 mb - 0.00 in0.0 mm 0.00 in0.0 mm
11:40 PM 76.4°F24.7°C 62.9°F17.2°C 63% 1.2 mph SE1.9 kmh SE 1.2 mph1.9 kmh 29.85 in1010.8 mb - 0.00 in0.0 mm 0.00 in0.0 mm
11:50 PM 76.3°F24.6°C 62.8°F17.1°C 63% 1.2 mph WSW1.9 kmh WSW 2.3 mph3.7 kmh 29.82 in1009.8 mb - 0.00 in0.0 mm 0.00 in0.0 mm